Nearby METAR Reports

 

KCPC - Whiteville, North Carolina, USA
Distance from station: NNE 17mi, 28km
Updated: 01/22/2020 4:08am
unable to load KCPC data RC=
unable to load KCPC data RC=
 
KCRE - North Myrtle Bea, South Carolina, USA
Distance from station: SSE 19mi, 31km
Updated: 01/22/2020 3:53am
Clear
Clear
 Wind from N
Wind: N 12 mph , 19 km/h, Gust: 23 mph , 37 km/h
Temperature: 32°F , 0°C
Wind Chill: 23°F , -5°C
Dew Point: 19°F , -7°C
Humidity: 60%
Barometer: 30.28 inHg , 1025.4 hPa
Clouds: Clear
Visibility: 10 miles , 16 km
2020/01/22 08:53 KCRE 220853Z AUTO 36010G20KT 10SM CLR 00/M07 A3028 RMK AO1 SLP255 T00001072 58001 $
 
KHYW - Conway-Horry Cty, South Carolina, USA
Distance from station: SW 22mi, 35km
Updated: 01/22/2020 3:55am
Clear
Clear
 Wind from N
Wind: N 8 mph , 13 km/h
Temperature: 30°F , -1°C
Wind Chill: 22°F , -6°C
Dew Point: 18°F , -8°C
Humidity: 59%
Barometer: 30.31 inHg , 1026.4 hPa
Clouds: Clear
Visibility: 10 miles , 16 km
2020/01/22 08:55 KHYW 220855Z AUTO 01007KT 10SM CLR M01/M08 A3031 RMK AO2
KMAO - Marion, South Carolina, USA
Distance from station: WNW 28mi, 45km
Updated: 01/22/2020 3:55am
Clear
Clear
 Wind from NNE
Wind: NNE 13 mph , 20 km/h, Gust: 20 mph , 31 km/h
Temperature: 30°F , -1°C
Wind Chill: 20°F , -7°C
Dew Point: 16°F , -9°C
Humidity: 55%
Barometer: 30.34 inHg , 1027.4 hPa
Clouds: Clear
Visibility: 10 miles , 16 km
2020/01/22 08:55 KMAO 220855Z AUTO 02011G17KT 10SM CLR M01/M09 A3034 RMK AO2
 
KMYR - Myrtle Beach, South Carolina, USA
Distance from station: S 28mi, 45km
Updated: 01/22/2020 3:56am
Clear
Clear
 Wind from N
Wind: N 17 mph , 28 km/h, Gust: 23 mph , 37 km/h
Temperature: 30°F , -1°C
Wind Chill: 18°F , -8°C
Dew Point: 19°F , -7°C
Humidity: 64%
Barometer: 30.29 inHg , 1025.7 hPa
Clouds: Clear
Visibility: 10 miles , 16 km
2020/01/22 08:56 KMYR 220856Z AUTO 36015G20KT 10SM CLR M01/M07 A3029 RMK AO2 SLP255 T10061072 50000 FZRANO
KLBT - Lumberton, North Carolina, USA
Distance from station: NNW 39mi, 62km
Updated: 03/28/2019 9:55am
NOT Current

 
2019/03/28 13:55 KLBT 281355Z MKT MSM M M M M A0000 M M RMK TEST
 
KSUT - Southport, North Carolina, USA
Distance from station: E 46mi, 74km
Updated: 01/22/2020 3:55am
Clear
Clear
 Wind from N
Wind: N 16 mph , 26 km/h, Gust: 23 mph , 37 km/h
Temperature: 32°F , 0°C
Wind Chill: 21°F , -6°C
Dew Point: 19°F , -7°C
Humidity: 60%
Barometer: 30.26 inHg , 1024.7 hPa
Clouds: Clear
Visibility: 10 miles , 16 km
2020/01/22 08:55 KSUT 220855Z AUTO 01014G20KT 10SM CLR 00/M07 A3026 RMK AO2 T10051067
KFLO - Florence, South Carolina, USA
Distance from station: W 50mi, 81km
Updated: 01/22/2020 3:53am
Clear
Clear
 Wind from NNE
Wind: NNE 13 mph , 20 km/h
Temperature: 30°F , -1°C
Wind Chill: 20°F , -7°C
Dew Point: 12°F , -11°C
Humidity: 47%
Barometer: 30.36 inHg , 1028.1 hPa
Clouds: Clear
Visibility: 10 miles , 16 km
2020/01/22 08:53 KFLO 220853Z AUTO 02011KT 10SM CLR M01/M11 A3036 RMK AO2 SLP280 T10061106 53006